createdAt,value
2023-02-15T05:35:57.329Z,59.70
2023-02-15T05:40:59.843Z,53.83
2023-02-15T05:46:02.574Z,60.70
2023-02-15T05:51:07.214Z,60.77
2023-02-15T05:56:10.636Z,57.60
2023-02-15T06:01:22.159Z,53.53
2023-02-15T06:06:23.855Z,59.17
2023-02-15T06:11:25.544Z,55.73
2023-02-15T06:16:27.182Z,60.50
2023-02-15T06:21:29.351Z,60.03
2023-02-15T06:26:30.974Z,56.23
2023-02-15T06:31:32.798Z,67.50
2023-02-15T06:36:34.635Z,58.30
2023-02-15T06:41:36.552Z,54.03
2023-02-15T06:46:38.293Z,64.13
2023-02-15T06:51:39.967Z,63.13
2023-02-15T06:56:41.576Z,56.17
2023-02-15T07:01:43.289Z,61.00
2023-02-15T07:06:44.987Z,61.37
2023-02-15T07:12:05.053Z,62.03
2023-02-15T07:17:11.764Z,62.93
2023-02-15T07:22:20.251Z,58.50
2023-02-15T07:27:22.432Z,56.83
2023-02-15T07:32:24.137Z,56.67
2023-02-15T07:37:26.971Z,61.60
2023-02-15T07:42:28.637Z,59.70
2023-02-15T07:47:30.693Z,55.07
2023-02-15T07:52:32.353Z,58.50
2023-02-15T07:57:33.989Z,55.30
2023-02-15T08:02:38.066Z,58.77
2023-02-15T08:07:39.731Z,62.17
2023-02-15T08:12:41.343Z,55.67
2023-02-15T08:17:42.986Z,55.67
2023-02-15T08:22:44.604Z,64.43
2023-02-15T08:27:46.211Z,60.93
2023-02-15T08:32:48.065Z,58.83
2023-02-15T08:37:49.890Z,62.57
2023-02-15T08:42:51.806Z,61.47
2023-02-15T08:47:54.047Z,64.27
2023-02-15T08:52:57.035Z,59.10
2023-02-15T08:57:58.841Z,62.47
2023-02-15T09:03:01.212Z,68.23
2023-02-15T09:08:02.964Z,74.13
2023-02-15T09:13:04.681Z,69.60
2023-02-15T09:18:07.056Z,62.63
2023-02-15T09:23:16.227Z,62.73
2023-02-15T09:28:23.637Z,62.93
2023-02-15T09:33:27.034Z,70.37
2023-02-15T09:38:28.899Z,63.33
2023-02-15T09:44:19.339Z,66.67
2023-02-15T09:49:33.238Z,64.23
2023-02-15T09:54:46.366Z,59.70
2023-02-15T10:00:18.895Z,60.03
2023-02-15T10:05:20.931Z,57.23
2023-02-15T10:10:58.200Z,61.67
2023-02-15T10:16:09.056Z,54.30
2023-02-15T10:21:28.576Z,63.63
2023-02-15T10:26:43.275Z,68.07
2023-02-15T10:31:55.369Z,61.47
2023-02-15T10:37:05.508Z,61.87
2023-02-15T10:42:48.854Z,62.63
2023-02-15T10:48:17.924Z,64.20
2023-02-15T10:53:22.306Z,62.60
2023-02-15T10:58:26.896Z,59.33
2023-02-15T11:03:55.667Z,60.27
2023-02-15T11:09:19.340Z,69.23
2023-02-15T11:14:33.012Z,66.03
2023-02-15T11:19:42.857Z,59.97
2023-02-15T11:24:46.807Z,57.63
2023-02-15T11:29:58.251Z,61.63
2023-02-15T11:35:24.565Z,64.37
2023-02-15T11:40:28.513Z,64.13
2023-02-15T11:45:35.598Z,61.53
2023-02-15T11:50:37.407Z,68.53
2023-02-15T11:55:39.128Z,68.07
2023-02-15T12:00:44.706Z,67.67
2023-02-15T12:05:50.843Z,62.93
2023-02-15T12:10:57.307Z,62.37
2023-02-15T12:16:06.291Z,67.57
2023-02-15T12:21:25.577Z,58.03
2023-02-15T12:26:30.952Z,60.67
2023-02-15T12:31:40.304Z,67.60
2023-02-15T12:36:47.441Z,65.03
2023-02-15T12:41:54.917Z,58.43
2023-02-15T12:47:02.393Z,66.03
2023-02-15T12:52:09.916Z,62.00
2023-02-15T12:57:36.770Z,65.20
2023-02-15T13:02:48.350Z,62.00
2023-02-15T13:07:54.931Z,59.57
2023-02-15T13:12:58.885Z,62.23
2023-02-15T13:18:02.772Z,64.57
2023-02-15T13:23:28.455Z,54.90
2023-02-15T13:28:44.416Z,60.90
2023-02-15T13:33:53.917Z,59.43
2023-02-15T13:39:34.082Z,62.53
2023-02-15T13:45:10.365Z,62.53
2023-02-15T13:50:49.065Z,64.93
2023-02-15T13:56:08.794Z,59.27
2023-02-15T14:01:19.165Z,64.03
2023-02-15T14:06:27.931Z,59.67
2023-02-15T14:11:57.208Z,57.30
2023-02-15T14:17:18.607Z,62.67
2023-02-15T14:22:36.293Z,63.97
2023-02-15T14:27:56.050Z,61.40
2023-02-15T14:33:10.084Z,65.10
2023-02-15T14:38:38.143Z,59.63
2023-02-15T14:44:03.480Z,64.20
2023-02-15T14:49:13.984Z,63.90
2023-02-15T14:54:18.392Z,59.37
2023-02-15T14:59:22.342Z,64.17
2023-02-15T15:04:34.299Z,65.10
2023-02-15T15:09:38.804Z,63.93
2023-02-15T15:14:43.855Z,59.17
2023-02-15T15:19:51.954Z,63.70
2023-02-15T15:25:31.642Z,64.93
2023-02-15T15:30:33.224Z,60.60
2023-02-15T15:35:45.712Z,68.10
2023-02-15T15:41:18.068Z,70.27
2023-02-15T15:47:04.020Z,62.87
2023-02-15T15:52:36.430Z,69.33
2023-02-15T15:57:43.892Z,57.10
2023-02-15T16:02:52.876Z,68.23
2023-02-15T16:07:54.611Z,65.73
2023-02-15T16:12:56.753Z,60.83
2023-02-15T16:18:00.837Z,59.70
2023-02-15T16:23:19.664Z,63.63
2023-02-15T16:28:21.734Z,55.73
2023-02-15T16:33:23.417Z,58.57
2023-02-15T16:38:43.493Z,57.97
2023-02-15T16:43:49.144Z,62.60
2023-02-15T16:48:53.281Z,59.97
2023-02-15T16:53:56.763Z,64.00
2023-02-15T16:58:59.922Z,66.70
2023-02-15T17:04:22.902Z,64.23
2023-02-15T17:09:26.611Z,57.47
2023-02-15T17:14:30.437Z,66.97
2023-02-15T17:19:43.041Z,62.47
2023-02-15T17:24:49.714Z,62.87
2023-02-15T17:29:56.416Z,62.43
2023-02-15T17:35:09.309Z,61.13
2023-02-15T17:40:31.145Z,59.00
2023-02-15T17:45:36.606Z,57.53
2023-02-15T17:50:38.981Z,59.07
2023-02-15T17:55:41.443Z,57.70
2023-02-15T18:01:11.446Z,67.83
2023-02-15T18:06:32.484Z,63.80
2023-02-15T18:11:35.120Z,64.67
2023-02-15T18:16:43.433Z,72.30
2023-02-15T18:21:46.447Z,83.53
2023-02-15T18:26:48.778Z,86.27
2023-02-15T18:31:54.780Z,69.63
2023-02-15T18:36:57.941Z,74.53
2023-02-15T18:41:59.693Z,72.77
2023-02-15T18:47:01.296Z,69.80
2023-02-15T18:52:03.043Z,72.77
2023-02-15T18:57:04.710Z,70.80
2023-02-15T19:02:18.230Z,68.60
2023-02-15T19:07:28.090Z,75.33
2023-02-15T19:12:29.844Z,88.67
2023-02-15T19:17:31.443Z,80.33
2023-02-15T19:22:34.910Z,71.63
2023-02-15T19:27:36.766Z,70.83
2023-02-15T19:32:38.511Z,80.10
2023-02-15T19:37:42.650Z,76.13
2023-02-15T19:42:44.453Z,66.87
2023-02-15T19:47:48.255Z,67.50
2023-02-15T19:52:50.570Z,66.83
2023-02-15T19:57:54.181Z,72.40
2023-02-15T20:02:57.927Z,69.27
2023-02-15T20:07:59.721Z,71.80
2023-02-15T20:13:02.605Z,67.40
2023-02-15T20:18:05.265Z,67.30
2023-02-15T20:23:16.127Z,74.47
2023-02-15T20:28:23.652Z,68.87
2023-02-15T20:33:25.274Z,67.97
2023-02-15T20:38:29.863Z,59.83
2023-02-15T20:43:32.097Z,61.03
2023-02-15T20:48:33.886Z,60.60
2023-02-15T20:53:35.538Z,60.97
2023-02-15T20:58:38.596Z,72.37
2023-02-15T21:03:40.268Z,73.07
2023-02-15T21:08:42.557Z,62.13
2023-02-15T21:13:44.648Z,56.87
2023-02-15T21:18:46.270Z,55.87
2023-02-15T21:23:48.005Z,60.17
2023-02-15T21:28:50.493Z,58.70
